ESDF/RNB METAR and TAF weather

Enter ICAO airport designator
Station Type Date Time Source
ESDF METAR 2021/02/27 09:20 UTC NOAA

ESDF 270920Z 32007KT CAVOK 05/M00 Q1032


Station Type Date Time Source
ESDF Decoded METAR 2021/02/27 09:20 UTC NOAA

Ronneby, Sweden (ESDF) 56-16N 015-17E 74M
Feb 27, 2021 - 04:20 AM EST / 2021.02.27 0920 UTC
Wind: from the NW (320 degrees) at 8 MPH (7 KT):0
Visibility: greater than 7 mile(s):0
Temperature: 41 F (5 C)
Dew Point: 32 F (0 C)
Relative Humidity: 70%
Pressure (altimeter): 30.47 in. Hg (1032 hPa)
ob: ESDF 270920Z 32007KT CAVOK 05/M00 Q1032
cycle: 9

Station Type Date Time Source
ESDF TAF 2018/05/29 12:27 UTC NOAA

TAF TAF ESDF 291425Z 2912/2924 07008KT CAVOK
RMK MIL

Example: see airport list